| Date | Time | Temp. (oF) | Dew Point (oF) | Rel. Hum. (%) | Press. (in.) | Wind Dir. | Wind Speed (mph) | Hourly Rainfall (in.) |
|
|---|---|---|---|---|---|---|---|---|---|
| 1 | 05/16 | 00:00 | 63 | 56 | 80 | 29.86 | NNW | 5 | 0.00 |
| 2 | 05/15 | 23:00 | 65 | 53 | 67 | 29.83 | WNW | 5 | 0.00 |
| 3 | 05/15 | 22:00 | 65 | 50 | 60 | 29.81 | SSE | 9 | 0.00 |
| 4 | 05/15 | 21:00 | 67 | 51 | 58 | 29.80 | S | 5 | 0.00 |
| 5 | 05/15 | 20:00 | 70 | 54 | 58 | 29.79 | S | 8 | 0.00 |
| 6 | 05/15 | 19:00 | 73 | 51 | 47 | 29.77 | S | 4 | 0.00 |
| 7 | 05/15 | 18:00 | 75 | 49 | 41 | 29.76 | NW | 3 | 0.00 |
| 8 | 05/15 | 17:00 | 76 | 49 | 40 | 29.77 | NW | 2 | 0.00 |
| 9 | 05/15 | 16:00 | 75 | 48 | 39 | 29.78 | NNW | 2 | 0.00 |
| 10 | 05/15 | 15:00 | 76 | 49 | 40 | 29.79 | NNW | 9 | 0.00 |
| 11 | 05/15 | 14:00 | 74 | 50 | 44 | 29.82 | WNW | 4 | 0.00 |
| 12 | 05/15 | 13:00 | 71 | 49 | 47 | 29.83 | WNW | 5 | 0.00 |
| 13 | 05/15 | 12:00 | 69 | 49 | 50 | 29.85 | WNW | 7 | 0.00 |
| 14 | 05/15 | 11:00 | 68 | 53 | 59 | 29.85 | WNW | 10 | 0.00 |
| 15 | 05/15 | 10:00 | 67 | 60 | 79 | 29.83 | W | 7 | 0.00 |
| 16 | 05/15 | 09:00 | 67 | 63 | 90 | 29.83 | WSW | 6 | 0.00 |
| 17 | 05/15 | 08:00 | 65 | 63 | 94 | 29.81 | WSW | 4 | 0.00 |
| 18 | 05/15 | 07:00 | 65 | 63 | 95 | 29.79 | SW | 2 | 0.00 |
| 19 | 05/15 | 06:00 | 64 | 63 | 98 | 29.77 | SW | 3 | 0.00 |
| 20 | 05/15 | 05:00 | 64 | 63 | 98 | 29.76 | SSW | 3 | 0.00 |
| 21 | 05/15 | 04:00 | 65 | 64 | 97 | 29.76 | S | 2 | 0.00 |
| 22 | 05/15 | 03:00 | 65 | 64 | 98 | 29.75 | S | 2 | 0.00 |
| 23 | 05/15 | 02:00 | 65 | 64 | 99 | 29.76 | SSW | 2 | 0.00 |
| 24 | 05/15 | 01:00 | 66 | 65 | 99 | 29.77 | SSW | 5 | 0.00 |